createdAt,value
2022-08-11T00:01:55.605Z,80.03
2022-08-11T00:04:26.159Z,80.29
2022-08-11T00:06:54.337Z,79.24
2022-08-11T00:09:24.487Z,81.53
2022-08-11T00:11:53.114Z,81.12
2022-08-11T00:14:22.873Z,79.54
2022-08-11T00:16:57.170Z,79.67
2022-08-11T00:20:11.857Z,80.83
2022-08-11T00:22:21.780Z,76.79
2022-08-11T00:24:54.933Z,82.55
2022-08-11T00:27:33.407Z,83.86
2022-08-11T00:30:01.120Z,87.28
2022-08-11T00:32:31.552Z,81.54
2022-08-11T00:35:54.533Z,71.08
2022-08-11T00:37:50.616Z,77.08
2022-08-11T00:40:24.672Z,89.77
2022-08-11T00:43:03.196Z,79.41
2022-08-11T00:45:34.590Z,78.57
2022-08-11T00:48:06.982Z,77.11
2022-08-11T00:50:45.570Z,81.44
2022-08-11T00:53:36.648Z,79.78
2022-08-11T00:56:19.319Z,81.55
2022-08-11T00:59:35.040Z,84.14
2022-08-11T01:02:15.950Z,89.01
2022-08-11T01:05:34.195Z,93.42
2022-08-11T01:08:32.300Z,84.26
2022-08-11T01:11:55.610Z,86.44
2022-08-11T01:14:57.250Z,88.14
2022-08-11T01:17:58.950Z,87.19
2022-08-11T01:20:59.653Z,85.69
2022-08-11T01:24:00.767Z,85.95
2022-08-11T01:26:55.384Z,85.63
2022-08-11T01:29:59.786Z,89.87
2022-08-11T01:33:08.456Z,85.69
2022-08-11T01:35:50.129Z,87.70
2022-08-11T01:38:56.380Z,86.35
2022-08-11T01:42:00.937Z,87.66
2022-08-11T01:45:02.332Z,87.85
2022-08-11T01:47:53.178Z,87.93
2022-08-11T01:50:51.566Z,87.81
2022-08-11T01:53:35.736Z,86.66
2022-08-11T01:56:14.303Z,88.04
2022-08-11T01:58:47.107Z,91.51
2022-08-11T02:01:38.486Z,88.34
2022-08-11T02:04:12.780Z,86.49
2022-08-11T02:06:55.640Z,89.10
2022-08-11T02:09:36.157Z,91.62
2022-08-11T02:12:13.613Z,94.41
2022-08-11T02:14:53.655Z,96.34
2022-08-11T02:17:42.828Z,90.79
2022-08-11T02:20:38.074Z,89.39
2022-08-11T02:24:03.690Z,88.96
2022-08-11T02:26:24.103Z,92.79
2022-08-11T02:29:03.249Z,92.37
2022-08-11T02:32:14.910Z,92.81
2022-08-11T02:34:59.836Z,93.50
2022-08-11T02:37:38.334Z,93.47
2022-08-11T02:40:21.634Z,96.35
2022-08-11T02:42:59.244Z,95.11
2022-08-11T02:45:36.067Z,95.67
2022-08-11T02:48:24.892Z,100.00
2022-08-11T02:50:57.477Z,96.85
2022-08-11T02:53:29.636Z,96.56
2022-08-11T02:56:03.444Z,95.52
2022-08-11T02:58:39.794Z,97.01
2022-08-11T03:01:16.847Z,97.90
2022-08-11T03:03:51.680Z,98.67
2022-08-11T03:06:26.240Z,98.18
2022-08-11T03:08:57.465Z,98.30
2022-08-11T03:12:09.049Z,99.17
2022-08-11T03:14:59.547Z,100.00
2022-08-11T03:17:31.936Z,100.00
2022-08-11T03:20:22.533Z,98.39
2022-08-11T03:22:55.685Z,99.34
2022-08-11T03:25:31.913Z,99.05
2022-08-11T03:28:09.747Z,100.00
2022-08-11T03:30:45.402Z,99.47
2022-08-11T03:33:38.357Z,100.00
2022-08-11T03:36:12.159Z,100.00
2022-08-11T03:38:49.988Z,100.00
2022-08-11T03:42:02.425Z,100.00
2022-08-11T03:44:39.575Z,100.00
2022-08-11T03:47:20.853Z,100.00
2022-08-11T03:50:02.524Z,98.11
2022-08-11T03:52:47.968Z,99.77
2022-08-11T03:55:22.382Z,100.00
2022-08-11T03:58:15.616Z,100.00
2022-08-11T04:00:58.836Z,100.00
2022-08-11T04:04:00.105Z,100.00
2022-08-11T04:06:56.735Z,100.00
2022-08-11T04:10:01.906Z,100.00
2022-08-11T04:12:44.264Z,98.37
2022-08-11T04:16:00.853Z,100.00
2022-08-11T04:19:29.765Z,98.58
2022-08-11T04:22:23.322Z,100.00
2022-08-11T04:25:12.159Z,100.00
2022-08-11T04:28:28.633Z,100.00
2022-08-11T04:31:05.523Z,100.00
2022-08-11T04:33:56.538Z,100.00
2022-08-11T04:36:56.465Z,100.00
2022-08-11T04:39:40.881Z,100.00
2022-08-11T04:42:45.108Z,100.00
2022-08-11T04:45:39.351Z,100.00
2022-08-11T04:48:53.630Z,100.00
2022-08-11T04:51:52.802Z,100.00
2022-08-11T04:54:48.061Z,100.00
2022-08-11T04:57:39.335Z,100.00
2022-08-11T05:00:26.217Z,100.00
2022-08-11T05:03:28.704Z,100.00
2022-08-11T05:06:48.985Z,100.00
2022-08-11T05:09:47.585Z,100.00
2022-08-11T05:12:31.359Z,100.00
2022-08-11T05:15:17.282Z,100.00
2022-08-11T05:18:04.717Z,100.00
2022-08-11T05:20:50.703Z,100.00
2022-08-11T05:23:39.629Z,95.13
2022-08-11T05:26:47.117Z,100.00
2022-08-11T05:29:58.455Z,100.00
2022-08-11T05:32:49.010Z,100.00
2022-08-11T05:36:00.611Z,100.00
2022-08-11T05:38:23.695Z,100.00
2022-08-11T05:41:10.721Z,100.00
2022-08-11T05:44:21.413Z,98.19
2022-08-11T05:47:05.734Z,100.00
2022-08-11T05:49:52.119Z,100.00
2022-08-11T05:52:41.819Z,100.00
2022-08-11T05:55:28.574Z,100.00
2022-08-11T05:57:57.486Z,100.00
2022-08-11T06:00:27.314Z,100.00
2022-08-11T06:03:07.279Z,100.00
2022-08-11T06:05:38.335Z,100.00
2022-08-11T06:08:12.273Z,98.71
2022-08-11T06:10:42.041Z,98.93
2022-08-11T06:13:10.496Z,100.00
2022-08-11T06:15:47.478Z,100.00
2022-08-11T06:18:15.692Z,98.62
2022-08-11T06:20:50.857Z,100.00
2022-08-11T06:23:20.562Z,85.41
2022-08-11T06:25:48.897Z,91.86
2022-08-11T06:28:20.719Z,81.56
2022-08-11T06:30:50.241Z,87.54
2022-08-11T06:33:21.535Z,80.82
2022-08-11T06:36:00.509Z,83.70
2022-08-11T06:38:39.766Z,79.88
2022-08-11T06:41:33.409Z,78.01
2022-08-11T06:44:08.654Z,91.92
2022-08-11T06:46:40.207Z,82.76
2022-08-11T06:49:30.100Z,80.70
2022-08-11T06:52:01.574Z,81.79
2022-08-11T06:54:31.148Z,75.75
2022-08-11T06:57:32.151Z,77.89
2022-08-11T07:00:18.140Z,70.59
2022-08-11T07:02:56.171Z,73.38
2022-08-11T07:05:25.714Z,79.61
2022-08-11T07:09:03.514Z,71.54
2022-08-11T07:12:14.175Z,71.59
2022-08-11T07:15:08.149Z,68.23
2022-08-11T07:17:40.441Z,62.80
2022-08-11T07:20:29.037Z,69.67
2022-08-11T07:23:17.014Z,66.89
2022-08-11T07:26:04.076Z,66.20
2022-08-11T07:28:50.448Z,63.45
2022-08-11T07:31:21.432Z,59.07
2022-08-11T07:34:08.529Z,62.60
2022-08-11T07:36:41.279Z,65.46
2022-08-11T07:39:16.973Z,61.31
2022-08-11T07:41:44.972Z,60.35
2022-08-11T07:44:13.077Z,70.09
2022-08-11T07:46:59.851Z,61.02
2022-08-11T07:49:47.343Z,61.85
2022-08-11T07:52:30.379Z,57.70
2022-08-11T07:54:59.590Z,63.50
2022-08-11T07:58:14.047Z,68.31
2022-08-11T08:00:55.594Z,64.49
2022-08-11T08:03:54.534Z,50.42
2022-08-11T08:06:40.574Z,57.82
2022-08-11T08:09:27.699Z,52.18
2022-08-11T08:12:13.377Z,63.10
2022-08-11T08:14:58.861Z,64.09
2022-08-11T08:18:20.556Z,50.34
2022-08-11T08:20:37.878Z,51.20
2022-08-11T08:23:06.051Z,60.02
2022-08-11T08:25:36.456Z,51.80
2022-08-11T08:28:07.291Z,55.55
2022-08-11T08:30:50.880Z,54.64
2022-08-11T08:33:21.427Z,56.40
2022-08-11T08:36:11.624Z,58.99
2022-08-11T08:38:41.493Z,55.14
2022-08-11T08:41:13.205Z,47.87
2022-08-11T08:43:48.515Z,50.54
2022-08-11T08:46:20.074Z,57.57
2022-08-11T08:48:48.435Z,53.21
2022-08-11T08:52:01.900Z,49.43
2022-08-11T08:54:23.450Z,50.85
2022-08-11T08:56:54.212Z,49.63
2022-08-11T08:59:23.815Z,48.38
2022-08-11T09:01:54.646Z,43.33
2022-08-11T09:04:22.771Z,44.31
2022-08-11T09:06:52.307Z,44.85
2022-08-11T09:09:22.141Z,42.64
2022-08-11T09:11:53.424Z,44.33
2022-08-11T09:14:22.836Z,46.65
2022-08-11T09:16:51.308Z,46.47
2022-08-11T09:19:21.420Z,47.12
2022-08-11T09:22:12.703Z,48.72
2022-08-11T09:24:58.637Z,47.06
2022-08-11T09:27:27.704Z,42.74
2022-08-11T09:29:55.803Z,44.60
2022-08-11T09:32:23.941Z,48.83
2022-08-11T09:34:54.187Z,43.25
2022-08-11T09:37:54.566Z,50.36
2022-08-11T09:40:30.563Z,45.39
2022-08-11T09:43:19.520Z,46.77
2022-08-11T09:45:51.256Z,41.15
2022-08-11T09:48:19.804Z,49.95
2022-08-11T09:50:50.409Z,43.93
2022-08-11T09:53:36.511Z,43.06
2022-08-11T09:56:23.309Z,53.06
2022-08-11T09:58:52.392Z,47.89
2022-08-11T10:01:28.017Z,44.89
2022-08-11T10:03:59.828Z,48.18
2022-08-11T10:06:45.551Z,49.27
2022-08-11T10:09:20.180Z,47.96
2022-08-11T10:11:55.573Z,46.30
2022-08-11T10:14:45.556Z,48.04
2022-08-11T10:17:14.693Z,42.11
2022-08-11T10:19:43.426Z,49.23
2022-08-11T10:22:28.592Z,48.51
2022-08-11T10:25:19.647Z,43.88
2022-08-11T10:28:28.132Z,46.61
2022-08-11T10:30:56.925Z,46.52
2022-08-11T10:33:54.336Z,45.53
2022-08-11T10:36:27.103Z,41.10
2022-08-11T10:38:55.137Z,41.78
2022-08-11T10:42:01.884Z,44.33
2022-08-11T10:44:28.631Z,44.95
2022-08-11T10:47:15.169Z,44.48
2022-08-11T10:49:43.204Z,42.96
2022-08-11T10:52:29.362Z,48.57
2022-08-11T10:55:14.620Z,42.57
2022-08-11T10:58:04.287Z,49.93
2022-08-11T11:00:33.229Z,43.09
2022-08-11T11:03:21.885Z,47.97
2022-08-11T11:06:27.923Z,43.41
2022-08-11T11:09:00.111Z,37.23
2022-08-11T11:11:53.020Z,48.48
2022-08-11T11:14:46.204Z,45.70
2022-08-11T11:17:42.172Z,43.51
2022-08-11T11:20:34.593Z,38.43
2022-08-11T11:23:05.976Z,32.84
2022-08-11T11:25:44.909Z,34.19
2022-08-11T11:28:32.260Z,36.76
2022-08-11T11:31:12.520Z,31.63
2022-08-11T11:34:11.912Z,42.11
2022-08-11T11:36:46.586Z,38.21
2022-08-11T11:39:14.501Z,41.50
2022-08-11T11:41:43.271Z,33.70
2022-08-11T11:44:13.202Z,38.65
2022-08-11T11:46:41.397Z,40.78
2022-08-11T11:49:16.616Z,33.30
2022-08-11T11:51:50.249Z,38.35
2022-08-11T11:54:19.368Z,37.70
2022-08-11T11:56:47.711Z,38.12
2022-08-11T11:59:34.007Z,39.41
2022-08-11T12:02:11.927Z,44.90
2022-08-11T12:04:43.364Z,34.73
2022-08-11T12:07:30.480Z,40.84
2022-08-11T12:09:59.239Z,39.27
2022-08-11T12:12:44.697Z,44.03
2022-08-11T12:15:13.330Z,34.54
2022-08-11T12:17:41.215Z,43.58
2022-08-11T12:20:30.836Z,42.12
2022-08-11T12:23:16.725Z,39.58
2022-08-11T12:26:26.459Z,44.88
2022-08-11T12:28:51.359Z,43.50
2022-08-11T12:31:22.117Z,46.62
2022-08-11T12:33:50.356Z,42.83
2022-08-11T12:36:18.831Z,45.67
2022-08-11T12:38:51.465Z,40.98
2022-08-11T12:41:42.149Z,41.03
2022-08-11T12:44:37.280Z,39.75
2022-08-11T12:47:05.632Z,39.08
2022-08-11T12:49:54.455Z,45.16
2022-08-11T12:52:25.210Z,44.45
2022-08-11T12:54:59.861Z,36.89
2022-08-11T12:57:50.032Z,45.65
2022-08-11T13:00:36.163Z,42.09
2022-08-11T13:03:22.493Z,40.63
2022-08-11T13:05:53.604Z,36.25
2022-08-11T13:08:23.544Z,38.03
2022-08-11T13:11:10.675Z,36.37
2022-08-11T13:13:54.623Z,42.33
2022-08-11T13:16:24.747Z,40.86
2022-08-11T13:18:53.341Z,39.09
2022-08-11T13:21:22.638Z,37.22
2022-08-11T13:24:01.205Z,38.58
2022-08-11T13:26:47.101Z,38.48
2022-08-11T13:29:22.253Z,40.13
2022-08-11T13:31:50.313Z,38.30
2022-08-11T13:34:19.729Z,41.95
2022-08-11T13:36:49.766Z,42.06
2022-08-11T13:39:17.703Z,33.60
2022-08-11T13:41:48.255Z,42.57
2022-08-11T13:44:23.128Z,41.17
2022-08-11T13:46:53.099Z,36.54
2022-08-11T13:49:22.017Z,35.61
2022-08-11T13:51:50.373Z,39.41
2022-08-11T13:54:19.864Z,34.45
2022-08-11T13:56:51.431Z,37.94
2022-08-11T13:59:23.137Z,38.57
2022-08-11T14:02:19.761Z,35.76
2022-08-11T14:04:54.649Z,37.65
2022-08-11T14:07:24.168Z,37.22
2022-08-11T14:09:57.233Z,36.49
2022-08-11T14:12:45.610Z,38.50
2022-08-11T14:15:20.209Z,37.77
2022-08-11T14:17:51.994Z,34.76
2022-08-11T14:20:39.105Z,34.44
2022-08-11T14:23:08.490Z,37.04
2022-08-11T14:26:00.589Z,41.47
2022-08-11T14:28:31.664Z,38.04
2022-08-11T14:31:01.741Z,37.61
2022-08-11T14:33:38.146Z,35.80
2022-08-11T14:36:18.630Z,37.98
2022-08-11T14:38:46.585Z,34.54
2022-08-11T14:41:28.137Z,40.34
2022-08-11T14:44:15.352Z,39.60
2022-08-11T14:47:01.928Z,42.72
2022-08-11T14:49:30.372Z,40.17
2022-08-11T14:51:59.053Z,45.08
2022-08-11T14:54:45.384Z,44.06
2022-08-11T14:59:14.491Z,38.63
2022-08-11T15:01:59.716Z,39.22
2022-08-11T15:04:36.687Z,36.27
2022-08-11T15:07:04.996Z,37.06
2022-08-11T15:10:11.806Z,35.34
2022-08-11T15:12:34.208Z,38.13
2022-08-11T15:15:24.583Z,35.72
2022-08-11T15:17:54.557Z,37.31
2022-08-11T15:20:40.838Z,34.58
2022-08-11T15:23:26.330Z,36.46
2022-08-11T15:25:56.721Z,37.56
2022-08-11T15:28:43.614Z,33.95
2022-08-11T15:31:30.283Z,33.75
2022-08-11T15:34:18.241Z,35.23
2022-08-11T15:37:05.944Z,36.00
2022-08-11T15:39:36.118Z,37.49
2022-08-11T15:42:27.694Z,32.79
2022-08-11T15:45:16.212Z,33.60
2022-08-11T15:47:49.797Z,33.06
2022-08-11T15:50:20.158Z,34.21
2022-08-11T15:52:52.809Z,33.09
2022-08-11T15:55:21.205Z,31.85
2022-08-11T15:58:08.248Z,35.24
2022-08-11T16:00:59.074Z,34.24
2022-08-11T16:04:06.706Z,32.14
2022-08-11T16:06:37.492Z,34.74
2022-08-11T16:09:18.474Z,32.75
2022-08-11T16:11:47.540Z,33.01
2022-08-11T16:14:35.359Z,31.95
2022-08-11T16:17:04.547Z,32.95
2022-08-11T16:19:36.410Z,32.85
2022-08-11T16:22:07.287Z,32.39
2022-08-11T16:26:38.715Z,31.53
2022-08-11T16:27:24.624Z,29.39
2022-08-11T16:29:52.839Z,30.55
2022-08-11T16:32:23.413Z,29.87
2022-08-11T16:35:13.795Z,26.05
2022-08-11T16:38:00.172Z,25.41
2022-08-11T16:40:28.961Z,27.65
2022-08-11T16:43:15.622Z,31.97
2022-08-11T16:46:01.543Z,30.60
2022-08-11T16:48:37.367Z,34.78
2022-08-11T16:51:08.377Z,34.69
2022-08-11T16:53:59.834Z,32.30
2022-08-11T16:56:28.631Z,33.66
2022-08-11T16:59:15.485Z,34.98
2022-08-11T17:01:46.872Z,33.44
2022-08-11T17:04:43.507Z,34.15
2022-08-11T17:07:50.586Z,33.43
2022-08-11T17:10:52.014Z,34.42
2022-08-11T17:13:27.240Z,35.80
2022-08-11T17:16:12.548Z,35.83
2022-08-11T17:18:50.370Z,35.21
2022-08-11T17:21:21.123Z,35.32
2022-08-11T17:23:55.049Z,35.44
2022-08-11T17:26:26.646Z,35.95
2022-08-11T17:28:57.913Z,37.51
2022-08-11T17:31:45.605Z,35.94
2022-08-11T17:34:31.996Z,37.32
2022-08-11T17:37:00.416Z,36.96
2022-08-11T17:39:32.077Z,36.67
2022-08-11T17:42:18.476Z,36.97
2022-08-11T17:45:04.299Z,36.84
2022-08-11T17:47:50.819Z,37.83
2022-08-11T17:50:18.951Z,37.46
2022-08-11T17:53:05.644Z,38.21
2022-08-11T17:55:54.164Z,38.39
2022-08-11T17:58:40.936Z,37.41
2022-08-11T18:01:10.028Z,37.18
2022-08-11T18:03:39.736Z,38.61
2022-08-11T18:06:12.695Z,38.20
2022-08-11T18:09:01.887Z,37.91
2022-08-11T18:12:10.096Z,40.15
2022-08-11T18:14:55.747Z,37.45
2022-08-11T18:17:41.509Z,38.03
2022-08-11T18:20:27.957Z,40.31
2022-08-11T18:23:14.377Z,40.20
2022-08-11T18:26:01.920Z,38.77
2022-08-11T18:28:52.672Z,40.46
2022-08-11T18:31:38.553Z,39.30
2022-08-11T18:34:26.288Z,38.57
2022-08-11T18:37:21.134Z,38.82
2022-08-11T18:40:20.687Z,40.37
2022-08-11T18:43:07.178Z,42.31
2022-08-11T18:46:05.417Z,42.76
2022-08-11T18:48:54.629Z,43.27
2022-08-11T18:51:40.031Z,43.00
2022-08-11T18:54:28.432Z,43.23
2022-08-11T18:57:15.787Z,44.18
2022-08-11T19:00:01.149Z,43.85
2022-08-11T19:02:50.122Z,41.28
2022-08-11T19:06:32.385Z,43.59
2022-08-11T19:08:46.853Z,42.30
2022-08-11T19:11:32.354Z,42.47
2022-08-11T19:14:17.741Z,42.65
2022-08-11T19:17:04.391Z,42.84
2022-08-11T19:19:51.936Z,43.38
2022-08-11T19:22:37.243Z,44.78
2022-08-11T19:25:25.933Z,43.44
2022-08-11T19:28:12.330Z,44.33
2022-08-11T19:30:58.466Z,45.55
2022-08-11T19:34:02.508Z,45.63
2022-08-11T19:36:52.273Z,43.76
2022-08-11T19:39:38.525Z,43.24
2022-08-11T19:42:26.229Z,43.79
2022-08-11T19:45:11.990Z,43.98
2022-08-11T19:48:14.394Z,43.58
2022-08-11T19:51:02.758Z,44.30
2022-08-11T19:53:51.316Z,43.76
2022-08-11T19:56:36.869Z,44.91
2022-08-11T19:59:22.782Z,44.51
2022-08-11T20:02:13.241Z,46.03
2022-08-11T20:05:00.070Z,45.50
2022-08-11T20:07:46.766Z,46.22
2022-08-11T20:10:36.287Z,45.84
2022-08-11T20:13:22.165Z,45.67
2022-08-11T20:16:08.244Z,47.84
2022-08-11T20:18:54.130Z,46.93
2022-08-11T20:21:39.988Z,48.68
2022-08-11T20:24:25.814Z,48.08
2022-08-11T20:27:18.971Z,47.88
2022-08-11T20:30:11.969Z,48.30
2022-08-11T20:32:58.265Z,48.35
2022-08-11T20:35:44.832Z,49.57
2022-08-11T20:38:30.663Z,49.67
2022-08-11T20:41:16.288Z,50.52
2022-08-11T20:44:06.771Z,51.00
2022-08-11T20:46:57.041Z,51.54
2022-08-11T20:49:48.818Z,52.97
2022-08-11T20:52:39.082Z,53.64
2022-08-11T20:55:46.214Z,53.58
2022-08-11T20:58:54.791Z,53.11
2022-08-11T21:01:41.364Z,54.41
2022-08-11T21:04:27.422Z,54.73
2022-08-11T21:07:24.762Z,54.44
2022-08-11T21:10:22.992Z,55.82
2022-08-11T21:13:26.241Z,56.51
2022-08-11T21:16:25.454Z,56.57
2022-08-11T21:19:17.100Z,56.67
2022-08-11T21:22:03.599Z,58.32
2022-08-11T21:24:50.382Z,58.86
2022-08-11T21:27:37.198Z,58.68
2022-08-11T21:30:23.315Z,59.92
2022-08-11T21:33:09.162Z,60.40
2022-08-11T21:35:56.350Z,59.16
2022-08-11T21:38:41.994Z,60.71
2022-08-11T21:41:29.299Z,60.92
2022-08-11T21:44:15.511Z,61.49
2022-08-11T21:47:01.008Z,61.98
2022-08-11T21:49:46.397Z,62.21
2022-08-11T21:52:33.027Z,61.15
2022-08-11T21:55:18.625Z,61.01
2022-08-11T21:58:04.486Z,59.87
2022-08-11T22:00:49.920Z,60.64
2022-08-11T22:03:49.666Z,61.33
2022-08-11T22:06:36.705Z,61.76
2022-08-11T22:09:23.599Z,62.73
2022-08-11T22:12:30.126Z,63.72
2022-08-11T22:15:14.346Z,65.14
2022-08-11T22:17:59.735Z,66.79
2022-08-11T22:20:46.505Z,64.96
2022-08-11T22:23:35.872Z,65.21
2022-08-11T22:26:23.078Z,66.50
2022-08-11T22:29:09.634Z,67.96
2022-08-11T22:31:55.512Z,65.97
2022-08-11T22:34:44.980Z,67.32
2022-08-11T22:37:39.454Z,69.18
2022-08-11T22:40:26.394Z,70.98
2022-08-11T22:43:12.867Z,70.62
2022-08-11T22:45:58.226Z,72.29
2022-08-11T22:48:44.720Z,70.32
2022-08-11T22:51:30.600Z,72.73
2022-08-11T22:54:16.851Z,74.01
2022-08-11T22:57:02.540Z,74.34
2022-08-11T22:59:49.247Z,76.27
2022-08-11T23:02:34.755Z,76.49
2022-08-11T23:05:20.691Z,76.70
2022-08-11T23:08:06.493Z,75.63
2022-08-11T23:10:52.292Z,78.35
2022-08-11T23:13:38.909Z,78.29
2022-08-11T23:16:26.437Z,79.72
2022-08-11T23:19:11.889Z,80.13
2022-08-11T23:21:58.054Z,80.07
2022-08-11T23:24:44.612Z,79.74
2022-08-11T23:27:30.834Z,84.91
2022-08-11T23:30:19.045Z,81.68
2022-08-11T23:33:08.018Z,84.13
2022-08-11T23:35:56.781Z,86.32
2022-08-11T23:38:43.634Z,87.08
2022-08-11T23:41:29.365Z,86.93
2022-08-11T23:44:14.921Z,85.95
2022-08-11T23:47:00.378Z,88.63
2022-08-11T23:49:47.924Z,87.54
2022-08-11T23:52:34.281Z,89.22
2022-08-11T23:55:19.361Z,90.18
2022-08-11T23:58:04.780Z,91.17
